createdAt,value
2023-05-12T00:02:14.655Z,41.67
2023-05-12T00:04:42.347Z,50.38
2023-05-12T00:07:09.795Z,48.60
2023-05-12T00:09:38.246Z,49.85
2023-05-12T00:12:06.026Z,43.67
2023-05-12T00:14:33.273Z,39.55
2023-05-12T00:17:00.795Z,42.70
2023-05-12T00:19:28.048Z,40.92
2023-05-12T00:21:55.304Z,40.22
2023-05-12T00:24:22.679Z,48.22
2023-05-12T00:26:49.946Z,37.95
2023-05-12T00:29:18.367Z,38.40
2023-05-12T00:31:45.850Z,34.40
2023-05-12T00:34:13.156Z,29.80
2023-05-12T00:36:40.412Z,32.05
2023-05-12T00:39:07.976Z,27.38
2023-05-12T00:41:35.437Z,32.78
2023-05-12T00:44:02.685Z,32.65
2023-05-12T00:46:31.309Z,32.30
2023-05-12T00:48:59.855Z,30.55
2023-05-12T00:51:28.386Z,26.95
2023-05-12T00:53:57.444Z,27.17
2023-05-12T00:56:26.771Z,34.00
2023-05-12T00:58:54.069Z,33.53
2023-05-12T01:01:21.838Z,36.83
2023-05-12T01:03:53.206Z,26.80
2023-05-12T01:06:38.707Z,37.38
2023-05-12T01:09:08.695Z,38.25
2023-05-12T01:11:36.431Z,33.65
2023-05-12T01:14:04.814Z,31.85
2023-05-12T01:16:41.172Z,33.45
2023-05-12T01:19:36.579Z,33.45
2023-05-12T01:22:04.369Z,32.83
2023-05-12T01:24:36.888Z,30.90
2023-05-12T01:27:05.511Z,37.13
2023-05-12T01:29:33.641Z,31.13
2023-05-12T01:32:03.559Z,36.83
2023-05-12T01:34:34.580Z,41.83
2023-05-12T01:37:02.541Z,37.95
2023-05-12T01:39:30.498Z,32.45
2023-05-12T01:41:58.486Z,39.65
2023-05-12T01:44:26.120Z,38.92
2023-05-12T01:46:53.446Z,29.42
2023-05-12T01:49:22.294Z,35.10
2023-05-12T01:51:50.343Z,36.28
2023-05-12T01:54:23.677Z,41.08
2023-05-12T01:56:51.138Z,44.25
2023-05-12T01:59:18.457Z,36.10
2023-05-12T02:01:45.958Z,40.10
2023-05-12T02:04:16.906Z,38.85
2023-05-12T02:06:46.374Z,37.13
2023-05-12T02:09:13.721Z,46.47
2023-05-12T02:11:41.810Z,39.58
2023-05-12T02:14:09.760Z,36.47
2023-05-12T02:16:38.133Z,46.28
2023-05-12T02:19:05.828Z,41.30
2023-05-12T02:21:33.459Z,42.92
2023-05-12T02:24:00.845Z,40.05
2023-05-12T02:26:28.482Z,37.55
2023-05-12T02:28:56.383Z,33.90
2023-05-12T02:31:24.129Z,36.67
2023-05-12T02:33:53.580Z,35.85
2023-05-12T02:36:21.089Z,43.40
2023-05-12T02:38:48.521Z,41.05
2023-05-12T02:41:16.330Z,41.15
2023-05-12T02:43:44.079Z,44.50
2023-05-12T02:46:12.025Z,43.58
2023-05-12T02:48:39.836Z,41.70
2023-05-12T02:51:07.337Z,47.25
2023-05-12T02:53:34.680Z,51.75
2023-05-12T02:56:02.010Z,43.50
2023-05-12T02:58:29.764Z,43.35
2023-05-12T03:01:09.300Z,48.97
2023-05-12T03:03:37.485Z,46.40
2023-05-12T03:06:06.126Z,43.38
2023-05-12T03:08:33.761Z,42.58
2023-05-12T03:11:01.247Z,47.20
2023-05-12T03:13:31.391Z,44.58
2023-05-12T03:16:01.751Z,46.22
2023-05-12T03:18:32.092Z,43.90
2023-05-12T03:20:59.646Z,43.20
2023-05-12T03:23:27.336Z,58.70
2023-05-12T03:25:55.771Z,44.70
2023-05-12T03:28:26.195Z,50.20
2023-05-12T03:30:54.060Z,56.30
2023-05-12T03:33:21.841Z,56.70
2023-05-12T03:35:51.792Z,45.97
2023-05-12T03:38:20.202Z,41.22
2023-05-12T03:40:52.654Z,49.53
2023-05-12T03:43:21.418Z,45.63
2023-05-12T03:45:49.951Z,53.30
2023-05-12T03:48:17.460Z,42.67
2023-05-12T03:50:44.762Z,45.58
2023-05-12T03:53:12.055Z,49.03
2023-05-12T03:55:39.572Z,46.05
2023-05-12T03:58:08.041Z,55.45
2023-05-12T04:00:38.897Z,47.58
2023-05-12T04:03:08.445Z,49.17
2023-05-12T04:05:39.620Z,49.88
2023-05-12T04:08:07.187Z,42.80
2023-05-12T04:10:42.390Z,55.70
2023-05-12T04:13:09.661Z,48.92
2023-05-12T04:15:37.320Z,43.50
2023-05-12T04:18:04.622Z,45.13
2023-05-12T04:20:31.966Z,49.85
2023-05-12T04:22:59.393Z,48.28
2023-05-12T04:25:26.918Z,45.42
2023-05-12T04:27:54.193Z,49.40
2023-05-12T04:30:22.068Z,49.00
2023-05-12T04:32:50.416Z,53.60
2023-05-12T04:35:17.699Z,50.97
2023-05-12T04:37:45.154Z,43.47
2023-05-12T04:40:12.736Z,51.15
2023-05-12T04:42:40.298Z,50.88
2023-05-12T04:45:11.039Z,51.05
2023-05-12T04:47:39.451Z,55.45
2023-05-12T04:50:07.478Z,55.97
2023-05-12T04:52:34.663Z,58.20
2023-05-12T04:55:02.518Z,57.22
2023-05-12T04:57:29.862Z,57.03
2023-05-12T04:59:59.284Z,66.82
2023-05-12T05:02:29.678Z,49.92
2023-05-12T05:04:57.447Z,59.00
2023-05-12T05:07:25.640Z,52.88
2023-05-12T05:09:55.014Z,56.30
2023-05-12T05:12:22.465Z,68.68
2023-05-12T05:14:49.921Z,69.57
2023-05-12T05:17:17.786Z,75.30
2023-05-12T05:19:57.333Z,61.47
2023-05-12T05:22:28.743Z,62.78
2023-05-12T05:24:56.373Z,61.35
2023-05-12T05:27:23.835Z,61.30
2023-05-12T05:29:51.608Z,62.88
2023-05-12T05:32:18.911Z,67.45
2023-05-12T05:34:46.350Z,59.10
2023-05-12T05:37:13.647Z,69.03
2023-05-12T05:39:41.268Z,61.25
2023-05-12T05:42:08.775Z,67.55
2023-05-12T05:44:36.623Z,68.60
2023-05-12T05:47:05.710Z,74.22
2023-05-12T05:49:33.708Z,68.95
2023-05-12T05:52:02.080Z,59.85
2023-05-12T05:54:29.463Z,71.05
2023-05-12T05:56:56.818Z,69.05
2023-05-12T05:59:24.473Z,65.10
2023-05-12T06:01:51.992Z,73.50
2023-05-12T06:04:19.599Z,60.40
2023-05-12T06:06:47.670Z,72.22
2023-05-12T06:09:16.019Z,74.47
2023-05-12T06:11:43.449Z,72.75
2023-05-12T06:14:12.400Z,61.97
2023-05-12T06:16:39.965Z,67.35
2023-05-12T06:19:09.360Z,73.50
2023-05-12T06:21:38.875Z,69.43
2023-05-12T06:24:06.737Z,66.35
2023-05-12T06:26:34.863Z,69.63
2023-05-12T06:29:02.169Z,73.90
2023-05-12T06:31:31.419Z,72.72
2023-05-12T06:33:58.795Z,68.88
2023-05-12T06:36:26.348Z,69.97
2023-05-12T06:38:54.015Z,63.60
2023-05-12T06:41:22.092Z,73.90
2023-05-12T06:43:49.309Z,65.55
2023-05-12T06:46:16.633Z,62.67
2023-05-12T06:48:43.884Z,60.40
2023-05-12T06:51:11.242Z,61.25
2023-05-12T06:53:38.658Z,68.85
2023-05-12T06:56:06.209Z,67.93
2023-05-12T06:58:33.538Z,67.60
2023-05-12T07:01:01.076Z,64.85
2023-05-12T07:03:32.258Z,68.50
2023-05-12T07:05:59.602Z,60.70
2023-05-12T07:08:31.583Z,63.42
2023-05-12T07:11:03.112Z,61.15
2023-05-12T07:13:31.730Z,64.38
2023-05-12T07:16:00.252Z,66.10
2023-05-12T07:18:27.654Z,64.40
2023-05-12T07:20:55.758Z,65.93
2023-05-12T07:23:23.033Z,62.00
2023-05-12T07:25:50.234Z,61.70
2023-05-12T07:28:17.746Z,58.42
2023-05-12T07:30:44.981Z,56.15
2023-05-12T07:33:12.343Z,57.10
2023-05-12T07:35:39.777Z,61.05
2023-05-12T07:38:09.468Z,55.08
2023-05-12T07:40:36.843Z,55.45
2023-05-12T07:43:04.126Z,50.63
2023-05-12T07:45:31.353Z,53.78
2023-05-12T07:47:58.655Z,57.72
2023-05-12T07:50:26.411Z,50.25
2023-05-12T07:52:54.197Z,50.85
2023-05-12T07:55:23.020Z,51.58
2023-05-12T07:57:50.920Z,50.22
2023-05-12T08:00:19.065Z,46.38
2023-05-12T08:02:47.832Z,50.22
2023-05-12T08:05:15.621Z,55.75
2023-05-12T08:07:44.015Z,46.92
2023-05-12T08:10:13.144Z,48.10
2023-05-12T08:12:41.680Z,51.40
2023-05-12T08:15:09.902Z,42.10
2023-05-12T08:17:37.453Z,45.33
2023-05-12T08:20:05.284Z,47.10
2023-05-12T08:22:32.546Z,46.08
2023-05-12T08:24:59.790Z,40.25
2023-05-12T08:27:27.396Z,43.53
2023-05-12T08:29:56.855Z,38.45
2023-05-12T08:32:24.525Z,38.55
2023-05-12T08:34:52.141Z,36.97
2023-05-12T08:37:19.564Z,41.03
2023-05-12T08:39:46.842Z,38.85
2023-05-12T08:42:35.239Z,37.35
2023-05-12T08:45:03.845Z,39.83
2023-05-12T08:47:33.652Z,38.00
2023-05-12T08:50:03.538Z,37.55
2023-05-12T08:52:36.029Z,35.90
2023-05-12T08:55:05.107Z,35.15
2023-05-12T08:57:33.765Z,35.13
2023-05-12T09:00:04.815Z,36.78
2023-05-12T09:02:44.667Z,38.22
2023-05-12T09:05:16.072Z,29.15
2023-05-12T09:07:47.152Z,31.80
2023-05-12T09:10:32.802Z,32.85
2023-05-12T09:13:22.881Z,32.13
2023-05-12T09:15:53.876Z,29.38
2023-05-12T09:18:21.836Z,28.38
2023-05-12T09:20:49.446Z,27.40
2023-05-12T09:23:19.102Z,25.50
2023-05-12T09:25:49.675Z,26.50
2023-05-12T09:30:44.867Z,22.75
2023-05-12T09:33:13.313Z,20.30
2023-05-12T09:35:45.035Z,20.77
2023-05-12T09:38:17.105Z,27.80
2023-05-12T09:40:45.589Z,22.20
2023-05-12T09:43:15.396Z,22.23
2023-05-12T09:45:44.388Z,19.85
2023-05-12T09:48:13.014Z,20.83
2023-05-12T09:50:47.658Z,18.88
2023-05-12T09:53:17.891Z,18.55
2023-05-12T09:55:46.758Z,18.92
2023-05-12T09:58:19.192Z,17.40
2023-05-12T10:03:18.759Z,16.77
2023-05-12T10:06:01.601Z,17.38
2023-05-12T10:08:42.384Z,21.75
2023-05-12T10:11:10.133Z,17.42
2023-05-12T10:13:38.522Z,17.00
2023-05-12T10:16:07.124Z,15.10
2023-05-12T10:18:35.152Z,17.52
2023-05-12T10:21:04.021Z,17.08
2023-05-12T10:23:31.858Z,13.90
2023-05-12T10:26:07.305Z,15.27
2023-05-12T10:28:34.601Z,12.82
2023-05-12T10:31:03.492Z,12.82
2023-05-12T10:33:31.161Z,12.55
2023-05-12T10:35:59.791Z,11.43
2023-05-12T10:38:27.236Z,11.77
2023-05-12T10:40:58.822Z,10.80
2023-05-12T10:43:38.651Z,13.32
2023-05-12T10:46:26.637Z,8.90
2023-05-12T10:49:06.063Z,9.48
2023-05-12T10:51:54.645Z,8.98
2023-05-12T10:54:25.463Z,10.10
2023-05-12T10:56:57.586Z,11.27
2023-05-12T10:59:27.169Z,8.57
2023-05-12T11:02:03.091Z,8.67
2023-05-12T11:04:37.609Z,9.52
2023-05-12T11:07:08.339Z,8.32
2023-05-12T11:09:44.619Z,8.52
2023-05-12T11:12:17.916Z,9.05
2023-05-12T11:14:47.379Z,11.15
2023-05-12T11:17:16.270Z,8.65
2023-05-12T11:19:51.302Z,8.57
2023-05-12T11:22:21.640Z,7.65
2023-05-12T11:27:20.084Z,6.70
2023-05-12T11:32:23.425Z,9.35
2023-05-12T11:34:51.125Z,6.50
2023-05-12T11:37:21.573Z,7.55
2023-05-12T11:39:49.463Z,8.10
2023-05-12T11:42:19.818Z,9.38
2023-05-12T11:44:49.589Z,6.00
2023-05-12T11:47:19.159Z,5.60
2023-05-12T11:49:48.954Z,4.25
2023-05-12T11:52:17.346Z,5.40
2023-05-12T11:55:00.354Z,6.68
2023-05-12T11:57:35.087Z,8.15
2023-05-12T12:00:06.943Z,5.93
2023-05-12T12:02:36.260Z,6.13
2023-05-12T12:05:04.168Z,6.65
2023-05-12T12:07:36.636Z,4.40
2023-05-12T12:10:17.233Z,4.45
2023-05-12T12:12:46.507Z,3.88
2023-05-12T12:15:13.824Z,7.22
2023-05-12T12:17:41.183Z,7.15
2023-05-12T12:20:14.471Z,9.15
2023-05-12T12:22:41.758Z,10.23
2023-05-12T12:25:11.109Z,7.20
2023-05-12T12:27:43.712Z,8.15
2023-05-12T12:30:11.897Z,10.13
2023-05-12T12:32:40.729Z,7.70
2023-05-12T12:35:09.224Z,10.48
2023-05-12T12:37:36.559Z,9.93
2023-05-12T12:40:08.549Z,10.27
2023-05-12T12:42:37.465Z,7.93
2023-05-12T12:45:08.425Z,8.35
2023-05-12T12:47:38.270Z,5.93
2023-05-12T12:50:10.889Z,5.25
2023-05-12T12:52:38.659Z,6.72
2023-05-12T12:55:07.296Z,5.63
2023-05-12T12:57:35.120Z,5.55
2023-05-12T13:00:04.633Z,6.55
2023-05-12T13:02:32.233Z,6.17
2023-05-12T13:05:04.168Z,7.13
2023-05-12T13:07:32.166Z,7.10
2023-05-12T13:09:59.434Z,6.50
2023-05-12T13:12:26.829Z,5.38
2023-05-12T13:14:54.271Z,3.28
2023-05-12T13:17:21.527Z,4.30
2023-05-12T13:19:48.782Z,4.07
2023-05-12T13:22:16.508Z,5.65
2023-05-12T13:24:45.465Z,3.35
2023-05-12T13:27:12.773Z,4.03
2023-05-12T13:29:42.127Z,4.20
2023-05-12T13:32:09.510Z,4.95
2023-05-12T13:34:36.765Z,2.58
2023-05-12T13:37:04.502Z,4.53
2023-05-12T13:39:32.073Z,4.03
2023-05-12T13:41:59.898Z,3.22
2023-05-12T13:44:27.596Z,2.85
2023-05-12T13:46:54.798Z,3.60
2023-05-12T13:49:23.076Z,5.75
2023-05-12T13:51:51.892Z,2.33
2023-05-12T13:54:19.255Z,3.88
2023-05-12T13:56:46.500Z,3.92
2023-05-12T13:59:13.822Z,6.72
2023-05-12T14:01:41.257Z,2.97
2023-05-12T14:04:08.728Z,4.35
2023-05-12T14:06:36.539Z,5.93
2023-05-12T14:09:07.523Z,4.13
2023-05-12T14:11:35.469Z,4.93
2023-05-12T14:14:03.643Z,6.85
2023-05-12T14:16:31.519Z,7.10
2023-05-12T14:19:00.452Z,4.07
2023-05-12T14:21:28.029Z,3.30
2023-05-12T14:23:57.222Z,7.20
2023-05-12T14:26:26.135Z,6.30
2023-05-12T14:28:53.537Z,9.18
2023-05-12T14:31:22.345Z,8.25
2023-05-12T14:33:49.714Z,6.47
2023-05-12T14:36:17.054Z,4.43
2023-05-12T14:38:44.658Z,7.55
2023-05-12T14:41:12.009Z,5.30
2023-05-12T14:43:39.420Z,3.13
2023-05-12T14:46:09.027Z,5.13
2023-05-12T14:48:36.391Z,7.53
2023-05-12T14:51:05.061Z,6.65
2023-05-12T14:53:32.725Z,5.68
2023-05-12T14:56:01.384Z,5.13
2023-05-12T14:58:28.725Z,6.40
2023-05-12T15:00:56.240Z,8.82
2023-05-12T15:03:24.193Z,5.18
2023-05-12T15:08:21.899Z,5.38
2023-05-12T15:10:49.882Z,5.63
2023-05-12T15:13:20.369Z,8.98
2023-05-12T15:15:47.856Z,5.53
2023-05-12T15:18:15.642Z,7.28
2023-05-12T15:20:46.225Z,6.70
2023-05-12T15:23:13.731Z,11.68
2023-05-12T15:25:42.085Z,11.15
2023-05-12T15:28:10.005Z,9.57
2023-05-12T15:30:37.888Z,13.07
2023-05-12T15:33:08.494Z,10.95
2023-05-12T15:35:36.163Z,10.82
2023-05-12T15:38:06.123Z,13.85
2023-05-12T15:40:34.636Z,10.70
2023-05-12T15:43:03.440Z,10.10
2023-05-12T15:45:31.513Z,12.60
2023-05-12T15:47:59.200Z,13.73
2023-05-12T15:50:26.737Z,11.02
2023-05-12T15:52:54.074Z,12.90
2023-05-12T15:55:21.622Z,17.17
2023-05-12T15:57:50.159Z,10.95
2023-05-12T16:00:17.895Z,14.00
2023-05-12T16:02:47.920Z,10.60
2023-05-12T16:05:15.348Z,12.30
2023-05-12T16:07:43.328Z,9.50
2023-05-12T16:10:11.914Z,10.25
2023-05-12T16:12:40.265Z,11.00
2023-05-12T16:15:08.654Z,9.07
2023-05-12T16:17:36.269Z,9.02
2023-05-12T16:20:05.309Z,7.65
2023-05-12T16:22:32.558Z,7.78
2023-05-12T16:24:59.928Z,12.95
2023-05-12T16:27:27.307Z,7.40
2023-05-12T16:29:55.788Z,8.60
2023-05-12T16:32:23.621Z,8.00
2023-05-12T16:34:51.402Z,5.97
2023-05-12T16:37:18.769Z,6.72
2023-05-12T16:39:46.085Z,7.57
2023-05-12T16:42:13.452Z,6.95
2023-05-12T16:44:40.775Z,8.48
2023-05-12T16:47:09.560Z,9.40
2023-05-12T16:49:36.911Z,5.97
2023-05-12T16:52:06.012Z,6.75
2023-05-12T16:54:33.376Z,11.73
2023-05-12T16:57:04.945Z,8.07
2023-05-12T16:59:36.330Z,5.50
2023-05-12T17:02:05.166Z,4.97
2023-05-12T17:04:32.743Z,7.68
2023-05-12T17:07:01.569Z,5.00
2023-05-12T17:09:28.915Z,5.00
2023-05-12T17:11:56.520Z,3.60
2023-05-12T17:14:23.834Z,3.60
2023-05-12T17:16:51.638Z,4.03
2023-05-12T17:19:19.016Z,5.22
2023-05-12T17:21:46.631Z,7.43
2023-05-12T17:24:14.498Z,7.47
2023-05-12T17:26:42.304Z,2.72
2023-05-12T17:29:09.822Z,5.57
2023-05-12T17:31:37.742Z,6.05
2023-05-12T17:34:06.033Z,2.50
2023-05-12T17:36:33.383Z,6.93
2023-05-12T17:39:00.909Z,6.30
2023-05-12T17:41:29.314Z,7.82
2023-05-12T17:43:56.906Z,4.95
2023-05-12T17:46:24.609Z,3.65
2023-05-12T17:48:52.320Z,2.35
2023-05-12T17:51:20.056Z,4.97
2023-05-12T17:53:47.327Z,2.60
2023-05-12T17:56:14.577Z,5.38
2023-05-12T17:58:42.842Z,3.70
2023-05-12T18:01:10.492Z,4.40
2023-05-12T18:03:38.100Z,2.20
2023-05-12T18:06:05.846Z,2.25
2023-05-12T18:08:33.155Z,3.53
2023-05-12T18:11:00.642Z,3.28
2023-05-12T18:13:28.106Z,2.00
2023-05-12T18:15:55.518Z,5.68
2023-05-12T18:18:22.836Z,4.10
2023-05-12T18:20:50.914Z,3.35
2023-05-12T18:23:18.452Z,1.83
2023-05-12T18:25:47.467Z,4.25
2023-05-12T18:28:15.113Z,3.78
2023-05-12T18:30:42.749Z,7.22
2023-05-12T18:33:10.752Z,3.28
2023-05-12T18:35:38.190Z,6.07
2023-05-12T18:38:05.723Z,4.72
2023-05-12T18:40:33.032Z,6.13
2023-05-12T18:43:02.878Z,3.83
2023-05-12T18:45:32.742Z,5.63
2023-05-12T18:48:00.832Z,4.18
2023-05-12T18:50:28.251Z,8.45
2023-05-12T18:52:55.895Z,3.95
2023-05-12T18:55:23.988Z,9.80
2023-05-12T18:57:51.389Z,3.00
2023-05-12T19:00:23.559Z,3.83
2023-05-12T19:02:53.505Z,4.38
2023-05-12T19:05:21.277Z,3.35
2023-05-12T19:07:48.819Z,6.32
2023-05-12T19:10:16.443Z,3.55
2023-05-12T19:12:48.219Z,3.67
2023-05-12T19:15:16.328Z,5.20
2023-05-12T19:17:43.910Z,3.05
2023-05-12T19:20:12.046Z,5.80
2023-05-12T19:22:39.341Z,4.97
2023-05-12T19:25:07.138Z,4.50
2023-05-12T19:27:34.606Z,4.57
2023-05-12T19:30:02.665Z,4.50
2023-05-12T19:32:31.525Z,3.88
2023-05-12T19:35:00.222Z,7.22
2023-05-12T19:37:27.951Z,3.65
2023-05-12T19:39:55.720Z,3.90
2023-05-12T19:42:23.612Z,5.53
2023-05-12T19:44:51.307Z,2.60
2023-05-12T19:47:19.375Z,2.50
2023-05-12T19:49:47.291Z,3.33
2023-05-12T19:52:14.724Z,2.30
2023-05-12T19:54:43.309Z,4.10
2023-05-12T19:57:10.826Z,5.13
2023-05-12T19:59:41.380Z,4.93
2023-05-12T20:02:12.957Z,5.35
2023-05-12T20:04:41.189Z,5.03
2023-05-12T20:07:08.719Z,4.50
2023-05-12T20:09:37.036Z,5.75
2023-05-12T20:12:07.795Z,9.55
2023-05-12T20:14:36.486Z,7.70
2023-05-12T20:17:07.442Z,2.60
2023-05-12T20:19:38.642Z,3.45
2023-05-12T20:22:06.603Z,6.85
2023-05-12T20:24:34.096Z,5.97
2023-05-12T20:27:03.721Z,3.75
2023-05-12T20:29:34.721Z,3.00
2023-05-12T20:32:05.496Z,7.32
2023-05-12T20:34:33.587Z,6.50
2023-05-12T20:37:01.219Z,5.25
2023-05-12T20:39:29.832Z,4.55
2023-05-12T20:41:57.598Z,3.72
2023-05-12T20:44:26.532Z,6.30
2023-05-12T20:46:54.617Z,7.72
2023-05-12T20:49:22.008Z,8.13
2023-05-12T20:51:49.462Z,5.53
2023-05-12T20:54:17.059Z,5.40
2023-05-12T20:56:44.671Z,6.07
2023-05-12T20:59:12.461Z,6.22
2023-05-12T21:01:39.746Z,8.00
2023-05-12T21:04:07.475Z,7.18
2023-05-12T21:06:36.197Z,5.30
2023-05-12T21:09:05.207Z,5.03
2023-05-12T21:11:32.762Z,4.47
2023-05-12T21:14:00.561Z,6.05
2023-05-12T21:16:29.044Z,6.55
2023-05-12T21:18:57.063Z,4.55
2023-05-12T21:21:24.522Z,5.35
2023-05-12T21:23:51.889Z,7.72
2023-05-12T21:26:19.625Z,6.25
2023-05-12T21:28:47.157Z,4.32
2023-05-12T21:31:14.438Z,4.32
2023-05-12T21:33:42.405Z,4.57
2023-05-12T21:36:09.769Z,7.72
2023-05-12T21:38:37.031Z,5.35
2023-05-12T21:41:04.403Z,4.75
2023-05-12T21:43:31.672Z,6.82
2023-05-12T21:46:03.441Z,5.28
2023-05-12T21:48:32.082Z,4.57
2023-05-12T21:51:02.252Z,8.18
2023-05-12T21:53:29.846Z,4.97
2023-05-12T21:55:57.135Z,4.45
2023-05-12T21:58:27.076Z,7.63
2023-05-12T22:00:54.477Z,7.72
2023-05-12T22:03:22.900Z,5.40
2023-05-12T22:05:50.596Z,5.25
2023-05-12T22:08:19.444Z,5.07
2023-05-12T22:10:47.166Z,6.30
2023-05-12T22:13:15.655Z,5.53
2023-05-12T22:15:43.423Z,12.60
2023-05-12T22:18:10.968Z,4.38
2023-05-12T22:20:38.352Z,5.68
2023-05-12T22:23:06.251Z,7.00
2023-05-12T22:25:33.556Z,5.88
2023-05-12T22:28:00.844Z,9.00
2023-05-12T22:30:28.092Z,5.10
2023-05-12T22:32:55.572Z,5.85
2023-05-12T22:35:22.921Z,5.38
2023-05-12T22:37:50.390Z,7.43
2023-05-12T22:40:18.183Z,8.30
2023-05-12T22:42:46.836Z,5.78
2023-05-12T22:45:14.147Z,5.93
2023-05-12T22:47:41.867Z,4.88
2023-05-12T22:50:10.683Z,6.43
2023-05-12T22:52:38.272Z,6.13
2023-05-12T22:55:06.007Z,5.80
2023-05-12T22:57:33.312Z,10.20
2023-05-12T23:00:00.856Z,12.57
2023-05-12T23:02:28.415Z,7.07
2023-05-12T23:04:55.923Z,7.88
2023-05-12T23:07:23.574Z,6.05
2023-05-12T23:09:52.449Z,7.45
2023-05-12T23:12:21.071Z,5.10
2023-05-12T23:14:48.472Z,7.97
2023-05-12T23:17:16.055Z,5.53
2023-05-12T23:19:43.499Z,6.50
2023-05-12T23:22:10.834Z,5.50
2023-05-12T23:24:38.285Z,11.68
2023-05-12T23:27:06.005Z,6.75
2023-05-12T23:29:34.744Z,12.52
2023-05-12T23:32:02.643Z,7.30
2023-05-12T23:34:33.363Z,6.10
2023-05-12T23:39:27.949Z,7.32
2023-05-12T23:41:55.368Z,6.10
2023-05-12T23:44:22.832Z,7.68
2023-05-12T23:46:50.507Z,7.00
2023-05-12T23:49:18.011Z,8.25
2023-05-12T23:51:46.298Z,5.82
2023-05-12T23:54:13.557Z,7.35
2023-05-12T23:56:42.193Z,5.35
2023-05-12T23:59:09.590Z,7.03
